Comber, Canada
Current Conditions -  °F | °C
As of 8:00 AM on Friday 24 Oct 2014 (Local Time) from CYQG Reporting Station
Light Fog Light Fog  
Wind Chill: 39°   Ceiling: 26000
Heat Index: 39°   Visibility: 8mi
Dew Point: 37°   Wind: 2mph
Humidity: 93%   Direction: 260°W
Pressure: 30.08"   Gusts: NA
Location:  42.23°N, 82.55°W
Report Text: CYQG 241200Z 26002KT 8SM MIFG FEW140 BKN260 04/03 A3008 RMK AC1CC4 SLP191
Loading
Personal Weather Stations






























Interactive Weather Map
Tropical Storm Tracking
New forecast layout! Learn more

10-Day Weather Forecast

Advertisements
Track Severe Weather on mobile